createdAt,value
2023-02-17T00:00:12.437Z,8.1
2023-02-17T00:03:12.251Z,8.3
2023-02-17T00:06:12.609Z,8.4
2023-02-17T00:09:12.166Z,8.4
2023-02-17T00:12:12.309Z,8.5
2023-02-17T00:15:12.248Z,8.5
2023-02-17T00:18:12.379Z,8.6
2023-02-17T00:21:12.161Z,8.6
2023-02-17T00:24:12.151Z,8.6
2023-02-17T00:27:12.207Z,8.8
2023-02-17T00:30:12.575Z,8.8
2023-02-17T00:33:12.229Z,8.8
2023-02-17T00:36:13.069Z,8.8
2023-02-17T00:39:12.152Z,8.9
2023-02-17T00:42:12.082Z,8.9
2023-02-17T00:45:12.217Z,8.9
2023-02-17T00:48:12.195Z,8.9
2023-02-17T00:51:12.213Z,8.9
2023-02-17T00:54:12.255Z,8.9
2023-02-17T00:57:12.092Z,8.9
2023-02-17T01:00:12.225Z,8.9
2023-02-17T01:03:12.200Z,8.9
2023-02-17T01:06:13.002Z,8.9
2023-02-17T01:09:12.221Z,8.9
2023-02-17T01:12:12.246Z,8.9
2023-02-17T01:15:12.285Z,8.8
2023-02-17T01:18:12.198Z,8.8
2023-02-17T01:21:12.110Z,8.8
2023-02-17T01:24:12.175Z,8.8
2023-02-17T01:27:12.178Z,8.8
2023-02-17T01:30:12.585Z,8.6
2023-02-17T01:33:12.178Z,8.6
2023-02-17T01:36:12.632Z,8.6
2023-02-17T01:39:12.247Z,8.6
2023-02-17T01:42:12.074Z,8.6
2023-02-17T01:45:12.177Z,8.6
2023-02-17T01:48:12.263Z,8.6
2023-02-17T01:51:12.080Z,8.8
2023-02-17T01:54:12.187Z,8.8
2023-02-17T01:57:12.194Z,8.8
2023-02-17T02:00:12.200Z,8.8
2023-02-17T02:03:12.510Z,8.8
2023-02-17T02:06:13.156Z,8.8
2023-02-17T02:09:12.144Z,8.8
2023-02-17T02:12:12.140Z,8.6
2023-02-17T02:15:12.327Z,8.8
2023-02-17T02:18:12.203Z,8.8
2023-02-17T02:21:12.148Z,8.8
2023-02-17T02:24:12.174Z,8.8
2023-02-17T02:27:12.185Z,8.8
2023-02-17T02:30:12.548Z,8.8
2023-02-17T02:33:12.152Z,8.8
2023-02-17T02:36:12.957Z,8.8
2023-02-17T02:39:12.128Z,8.8
2023-02-17T02:42:12.146Z,8.8
2023-02-17T02:45:12.174Z,8.8
2023-02-17T02:48:12.089Z,8.8
2023-02-17T02:51:12.171Z,8.8
2023-02-17T02:54:13.088Z,8.8
2023-02-17T02:57:12.216Z,8.9
2023-02-17T03:00:12.248Z,8.9
2023-02-17T03:03:12.187Z,8.9
2023-02-17T03:06:13.144Z,8.9
2023-02-17T03:09:12.127Z,9
2023-02-17T03:12:12.289Z,9
2023-02-17T03:15:12.597Z,9
2023-02-17T03:18:12.189Z,9
2023-02-17T03:21:12.171Z,9.1
2023-02-17T03:24:12.236Z,9.1
2023-02-17T03:27:12.157Z,9.1
2023-02-17T03:30:12.709Z,9.1
2023-02-17T03:33:12.203Z,9.1
2023-02-17T03:36:12.806Z,9.1
2023-02-17T03:39:12.373Z,9.1
2023-02-17T03:42:12.111Z,9.3
2023-02-17T03:45:12.253Z,9.3
2023-02-17T03:48:12.197Z,9.1
2023-02-17T03:51:12.179Z,9.1
2023-02-17T03:54:12.105Z,9.3
2023-02-17T03:57:12.283Z,9.3
2023-02-17T04:00:12.408Z,9.3
2023-02-17T04:03:12.235Z,9.3
2023-02-17T04:06:13.330Z,9.3
2023-02-17T04:09:12.204Z,9.3
2023-02-17T04:12:12.206Z,9.3
2023-02-17T04:15:12.176Z,9.3
2023-02-17T04:18:12.177Z,9.3
2023-02-17T04:21:12.102Z,9.3
2023-02-17T04:24:12.179Z,9.3
2023-02-17T04:27:12.146Z,9.3
2023-02-17T04:30:14.712Z,9.3
2023-02-17T04:33:12.177Z,9.3
2023-02-17T04:36:13.103Z,9.3
2023-02-17T04:39:12.150Z,9.3
2023-02-17T04:42:12.221Z,9.4
2023-02-17T04:45:12.221Z,9.3
2023-02-17T04:48:12.170Z,9.3
2023-02-17T04:51:12.262Z,9.3
2023-02-17T04:54:12.327Z,9.3
2023-02-17T04:57:12.214Z,9.1
2023-02-17T05:00:12.380Z,9.3
2023-02-17T05:03:12.265Z,9.3
2023-02-17T05:06:13.021Z,9.3
2023-02-17T05:09:12.199Z,9.4
2023-02-17T05:12:12.119Z,9.4
2023-02-17T05:15:12.214Z,9.4
2023-02-17T05:18:12.141Z,9.4
2023-02-17T05:21:12.133Z,9.4
2023-02-17T05:24:12.160Z,9.4
2023-02-17T05:27:12.197Z,9.4
2023-02-17T05:30:12.593Z,9.4
2023-02-17T05:33:12.186Z,9.5
2023-02-17T05:36:12.989Z,9.5
2023-02-17T05:39:12.170Z,9.5
2023-02-17T05:42:12.162Z,9.5
2023-02-17T05:45:12.153Z,9.5
2023-02-17T05:48:12.290Z,9.5
2023-02-17T05:51:12.213Z,9.5
2023-02-17T05:54:12.204Z,9.5
2023-02-17T05:57:12.118Z,9.5
2023-02-17T06:00:12.378Z,9.5
2023-02-17T06:03:12.442Z,9.5
2023-02-17T06:06:13.321Z,9.5
2023-02-17T06:09:12.190Z,9.6
2023-02-17T06:12:12.155Z,9.6
2023-02-17T06:15:12.197Z,9.6
2023-02-17T06:18:12.237Z,9.6
2023-02-17T06:21:12.085Z,9.6
2023-02-17T06:24:12.092Z,9.8
2023-02-17T06:27:12.191Z,9.8
2023-02-17T06:30:12.499Z,9.8
2023-02-17T06:33:12.332Z,9.9
2023-02-17T06:36:13.141Z,9.9
2023-02-17T06:39:12.228Z,9.9
2023-02-17T06:42:12.133Z,10
2023-02-17T06:45:12.240Z,10
2023-02-17T06:48:12.262Z,10
2023-02-17T06:51:12.321Z,10.1
2023-02-17T06:54:12.277Z,10.1
2023-02-17T06:57:12.381Z,10.3
2023-02-17T07:00:12.329Z,10.3
2023-02-17T07:03:13.332Z,10.4
2023-02-17T07:06:12.888Z,10.5
2023-02-17T07:09:12.193Z,10.6
2023-02-17T07:12:12.216Z,10.8
2023-02-17T07:15:16.206Z,10.8
2023-02-17T07:18:12.522Z,10.9
2023-02-17T07:21:12.248Z,11
2023-02-17T07:24:12.176Z,11.1
2023-02-17T07:27:15.149Z,11.1
2023-02-17T07:30:12.619Z,11.3
2023-02-17T07:33:15.457Z,11.4
2023-02-17T07:36:12.996Z,11.4
2023-02-17T07:39:12.223Z,11.4
2023-02-17T07:42:12.305Z,11.5
2023-02-17T07:45:12.254Z,11.5
2023-02-17T07:48:12.255Z,11.6
2023-02-17T07:51:12.312Z,11.6
2023-02-17T07:54:12.358Z,11.8
2023-02-17T07:57:12.280Z,11.9
2023-02-17T08:00:14.932Z,11.8
2023-02-17T08:03:12.223Z,11.9
2023-02-17T08:06:12.958Z,12.1
2023-02-17T08:09:12.267Z,12.2
2023-02-17T08:12:12.187Z,12.2
2023-02-17T08:15:12.372Z,12.4
2023-02-17T08:18:12.228Z,12.4
2023-02-17T08:21:13.304Z,12.4
2023-02-17T08:24:12.194Z,12.5
2023-02-17T08:27:12.955Z,12.6
2023-02-17T08:30:12.720Z,12.8
2023-02-17T08:33:12.403Z,12.8
2023-02-17T08:36:12.952Z,12.9
2023-02-17T08:39:12.222Z,12.9
2023-02-17T08:42:12.384Z,12.9
2023-02-17T08:45:12.226Z,12.9
2023-02-17T08:48:12.319Z,12.9
2023-02-17T08:51:12.423Z,13
2023-02-17T08:54:12.348Z,13.3
2023-02-17T08:57:12.410Z,13.5
2023-02-17T09:00:14.465Z,13.8
2023-02-17T09:03:12.462Z,13.8
2023-02-17T09:06:13.209Z,14
2023-02-17T09:09:12.462Z,14.3
2023-02-17T09:12:12.309Z,14.4
2023-02-17T09:15:12.467Z,14.6
2023-02-17T09:18:12.259Z,14.7
2023-02-17T09:21:12.367Z,14.7
2023-02-17T09:24:12.590Z,14.5
2023-02-17T09:27:12.329Z,14.5
2023-02-17T09:30:13.088Z,14.6
2023-02-17T09:33:12.660Z,14.7
2023-02-17T09:36:13.168Z,14.9
2023-02-17T09:39:15.605Z,14.7
2023-02-17T09:42:12.420Z,14.5
2023-02-17T09:45:14.972Z,14.3
2023-02-17T09:48:12.587Z,14.3
2023-02-17T09:51:14.810Z,14.1
2023-02-17T09:54:12.474Z,14.1
2023-02-17T09:57:12.462Z,14.3
2023-02-17T10:00:12.754Z,14.4
2023-02-17T10:03:17.720Z,14.6
2023-02-17T10:06:13.154Z,14.6
2023-02-17T10:09:15.070Z,14.7
2023-02-17T10:12:12.519Z,14.6
2023-02-17T10:15:17.593Z,14.9
2023-02-17T10:18:12.412Z,15
2023-02-17T10:21:15.131Z,15.3
2023-02-17T10:24:12.309Z,15.5
2023-02-17T10:27:12.491Z,15.6
2023-02-17T10:30:12.831Z,15.8
2023-02-17T10:33:12.483Z,15.5
2023-02-17T10:36:13.305Z,15.5
2023-02-17T10:39:12.297Z,15.5
2023-02-17T10:42:12.217Z,15.5
2023-02-17T10:45:12.723Z,15.4
2023-02-17T10:48:12.264Z,15.6
2023-02-17T10:51:12.184Z,15.9
2023-02-17T10:54:12.418Z,15.9
2023-02-17T10:57:12.355Z,15.9
2023-02-17T11:00:12.423Z,16.4
2023-02-17T11:03:12.246Z,16.6
2023-02-17T11:06:13.062Z,17.1
2023-02-17T11:09:12.188Z,17.9
2023-02-17T11:12:12.249Z,18.1
2023-02-17T11:15:12.199Z,18.4
2023-02-17T11:18:13.243Z,18.9
2023-02-17T11:21:12.680Z,19.9
2023-02-17T11:24:12.268Z,20.6
2023-02-17T11:27:12.447Z,21.1
2023-02-17T11:30:12.625Z,21.2
2023-02-17T11:33:12.306Z,21.4
2023-02-17T11:36:13.128Z,21.4
2023-02-17T11:39:12.140Z,21
2023-02-17T11:42:12.402Z,21
2023-02-17T11:45:12.341Z,21
2023-02-17T11:48:12.323Z,21.8
2023-02-17T11:51:12.201Z,22.4
2023-02-17T11:54:12.357Z,23.3
2023-02-17T11:57:12.245Z,23.6
2023-02-17T12:00:12.722Z,23.6
2023-02-17T12:03:12.619Z,23.5
2023-02-17T12:06:13.310Z,23.6
2023-02-17T12:09:12.274Z,23.6
2023-02-17T12:12:12.173Z,23.6
2023-02-17T12:15:12.251Z,23.4
2023-02-17T12:18:12.616Z,23.1
2023-02-17T12:21:12.181Z,22.8
2023-02-17T12:24:12.195Z,22.5
2023-02-17T12:27:12.859Z,22.4
2023-02-17T12:30:12.588Z,22.5
2023-02-17T12:33:12.250Z,22.5
2023-02-17T12:36:13.076Z,22.6
2023-02-17T12:39:12.244Z,23
2023-02-17T12:42:12.292Z,23.9
2023-02-17T12:45:12.321Z,24.5
2023-02-17T12:48:12.236Z,25
2023-02-17T12:51:12.324Z,25.3
2023-02-17T12:54:12.882Z,25.4
2023-02-17T12:57:12.232Z,24.7
2023-02-17T13:00:12.336Z,23.5
2023-02-17T13:03:12.348Z,22.2
2023-02-17T13:06:13.133Z,21.1
2023-02-17T13:09:12.226Z,20.1
2023-02-17T13:12:12.232Z,19.1
2023-02-17T13:15:12.313Z,18.5
2023-02-17T13:18:12.462Z,17.9
2023-02-17T13:21:12.393Z,17.4
2023-02-17T13:24:12.273Z,16.9
2023-02-17T13:27:12.260Z,16.5
2023-02-17T13:30:12.647Z,16.4
2023-02-17T13:33:12.315Z,16.3
2023-02-17T13:36:12.955Z,16.3
2023-02-17T13:39:12.291Z,16.3
2023-02-17T13:42:12.331Z,16.1
2023-02-17T13:45:12.305Z,16.1
2023-02-17T13:48:12.477Z,16
2023-02-17T13:51:12.193Z,15.9
2023-02-17T13:54:12.325Z,15.8
2023-02-17T13:57:12.190Z,15.6
2023-02-17T14:00:12.436Z,15.5
2023-02-17T14:03:12.292Z,15.3
2023-02-17T14:06:13.064Z,15.1
2023-02-17T14:09:12.208Z,15
2023-02-17T14:12:12.309Z,14.7
2023-02-17T14:15:12.168Z,14.5
2023-02-17T14:18:12.208Z,14
2023-02-17T14:21:13.425Z,13.6
2023-02-17T14:24:14.668Z,13.4
2023-02-17T14:27:12.162Z,13.3
2023-02-17T14:30:16.742Z,13.1
2023-02-17T14:33:12.422Z,13
2023-02-17T14:36:13.620Z,13.1
2023-02-17T14:39:12.226Z,13.1
2023-02-17T14:42:12.226Z,13.1
2023-02-17T14:45:12.340Z,13.3
2023-02-17T14:48:12.235Z,13.3
2023-02-17T14:51:12.288Z,13.3
2023-02-17T14:54:12.312Z,13.4
2023-02-17T14:57:12.508Z,13.4
2023-02-17T15:00:12.443Z,13.4
2023-02-17T15:03:12.601Z,13.3
2023-02-17T15:06:12.877Z,13.1
2023-02-17T15:09:12.344Z,13
2023-02-17T15:12:12.286Z,12.9
2023-02-17T15:15:12.245Z,12.8
2023-02-17T15:18:12.469Z,12.6
2023-02-17T15:21:12.176Z,12.4
2023-02-17T15:24:12.264Z,12.2
2023-02-17T15:27:12.188Z,12.1
2023-02-17T15:30:12.943Z,11.9
2023-02-17T15:33:12.155Z,11.8
2023-02-17T15:36:15.847Z,11.8
2023-02-17T15:39:12.260Z,11.6
2023-02-17T15:42:12.326Z,11.6
2023-02-17T15:45:12.182Z,11.8
2023-02-17T15:48:12.264Z,11.6
2023-02-17T15:51:12.269Z,11.6
2023-02-17T15:54:12.216Z,11.6
2023-02-17T15:57:12.204Z,11.5
2023-02-17T16:00:12.234Z,11.5
2023-02-17T16:03:12.627Z,11.4
2023-02-17T16:06:13.001Z,11.4
2023-02-17T16:09:12.268Z,11.4
2023-02-17T16:12:12.206Z,11.4
2023-02-17T16:15:12.406Z,11.3
2023-02-17T16:18:12.202Z,11.3
2023-02-17T16:21:12.224Z,11.1
2023-02-17T16:24:12.275Z,11.1
2023-02-17T16:27:12.177Z,11.1
2023-02-17T16:30:12.990Z,11
2023-02-17T16:33:12.294Z,11
2023-02-17T16:36:12.944Z,11
2023-02-17T16:39:12.178Z,11
2023-02-17T16:42:12.170Z,10.9
2023-02-17T16:45:12.215Z,10.9
2023-02-17T16:48:12.264Z,10.9
2023-02-17T16:51:12.275Z,10.9
2023-02-17T16:54:12.164Z,10.9
2023-02-17T16:57:12.412Z,10.9
2023-02-17T17:00:12.262Z,10.9
2023-02-17T17:03:12.369Z,10.9
2023-02-17T17:06:12.730Z,10.9
2023-02-17T17:09:12.886Z,10.9
2023-02-17T17:12:12.190Z,10.9
2023-02-17T17:15:12.133Z,10.9
2023-02-17T17:18:12.198Z,10.8
2023-02-17T17:21:12.163Z,10.6
2023-02-17T17:24:12.255Z,10.6
2023-02-17T17:27:12.179Z,10.6
2023-02-17T17:30:12.961Z,10.5
2023-02-17T17:33:12.202Z,10.4
2023-02-17T17:36:13.110Z,10.4
2023-02-17T17:39:12.196Z,10.4
2023-02-17T17:42:12.147Z,10.3
2023-02-17T17:45:12.188Z,10.3
2023-02-17T17:48:12.295Z,10.4
2023-02-17T17:51:12.248Z,10.3
2023-02-17T17:54:12.278Z,10.3
2023-02-17T17:57:12.237Z,10.3
2023-02-17T18:00:12.272Z,10.3
2023-02-17T18:03:12.303Z,10.3
2023-02-17T18:06:13.035Z,10.4
2023-02-17T18:09:22.378Z,10.5
2023-02-17T18:12:12.269Z,10.6
2023-02-17T18:15:12.315Z,10.8
2023-02-17T18:18:12.235Z,10.8
2023-02-17T18:21:12.263Z,10.8
2023-02-17T18:24:12.248Z,10.8
2023-02-17T18:27:12.160Z,10.6
2023-02-17T18:30:12.638Z,10.5
2023-02-17T18:33:12.249Z,10.4
2023-02-17T18:36:13.098Z,10.4
2023-02-17T18:39:12.286Z,10.4
2023-02-17T18:42:12.104Z,10.3
2023-02-17T18:45:12.195Z,10.3
2023-02-17T18:48:12.235Z,10.3
2023-02-17T18:51:12.355Z,10.3
2023-02-17T18:54:12.183Z,10.1
2023-02-17T18:57:12.201Z,10.1
2023-02-17T19:00:12.384Z,10.1
2023-02-17T19:03:12.313Z,10
2023-02-17T19:06:12.961Z,9.9
2023-02-17T19:09:12.196Z,9.9
2023-02-17T19:12:13.203Z,9.9
2023-02-17T19:15:12.113Z,9.9
2023-02-17T19:18:12.294Z,9.9
2023-02-17T19:21:12.168Z,9.9
2023-02-17T19:24:12.158Z,9.9
2023-02-17T19:27:12.155Z,9.9
2023-02-17T19:30:12.597Z,9.9
2023-02-17T19:33:12.166Z,9.9
2023-02-17T19:36:12.960Z,9.9
2023-02-17T19:39:12.182Z,9.8
2023-02-17T19:42:12.171Z,9.6
2023-02-17T19:45:12.116Z,9.5
2023-02-17T19:48:12.166Z,9.4
2023-02-17T19:51:12.216Z,9.4
2023-02-17T19:54:12.171Z,9.4
2023-02-17T19:57:12.318Z,9.3
2023-02-17T20:00:12.223Z,9.1
2023-02-17T20:03:12.449Z,9.1
2023-02-17T20:06:13.471Z,9
2023-02-17T20:09:12.229Z,8.9
2023-02-17T20:12:12.211Z,8.6
2023-02-17T20:15:12.217Z,8.5
2023-02-17T20:18:12.244Z,8.4
2023-02-17T20:21:12.138Z,8.3
2023-02-17T20:24:12.261Z,8.3
2023-02-17T20:27:12.172Z,8.1
2023-02-17T20:30:13.753Z,8
2023-02-17T20:33:12.849Z,8
2023-02-17T20:36:14.349Z,8.1
2023-02-17T20:39:13.151Z,8
2023-02-17T20:42:12.915Z,8
2023-02-17T20:45:13.125Z,8
2023-02-17T20:48:12.204Z,8
2023-02-17T20:51:12.159Z,8
2023-02-17T20:54:12.191Z,8
2023-02-17T20:57:12.245Z,7.9
2023-02-17T21:00:12.178Z,7.9
2023-02-17T21:03:12.727Z,7.7
2023-02-17T21:06:12.988Z,7.7
2023-02-17T21:09:12.239Z,7.7
2023-02-17T21:12:12.426Z,7.6
2023-02-17T21:15:12.202Z,7.6
2023-02-17T21:18:12.222Z,7.6
2023-02-17T21:21:12.193Z,7.6
2023-02-17T21:24:12.238Z,7.6
2023-02-17T21:27:12.173Z,7.6
2023-02-17T21:30:12.645Z,7.6
2023-02-17T21:33:12.412Z,7.6
2023-02-17T21:36:12.788Z,7.5
2023-02-17T21:39:12.142Z,7.5
2023-02-17T21:42:12.283Z,7.5
2023-02-17T21:45:12.339Z,7.4
2023-02-17T21:48:12.078Z,7.4
2023-02-17T21:51:12.166Z,7.4
2023-02-17T21:54:12.183Z,7.4
2023-02-17T21:57:15.376Z,7.4
2023-02-17T22:00:12.211Z,7.2
2023-02-17T22:03:12.169Z,7.2
2023-02-17T22:06:12.789Z,7.2
2023-02-17T22:09:12.160Z,7.2
2023-02-17T22:12:12.126Z,7.2
2023-02-17T22:15:43.894Z,7.2
2023-02-17T22:18:12.638Z,7.2
2023-02-17T22:21:12.074Z,7.2
2023-02-17T22:24:12.235Z,7.2
2023-02-17T22:27:12.284Z,7.2
2023-02-17T22:30:12.643Z,7.1
2023-02-17T22:33:12.259Z,7.1
2023-02-17T22:36:12.935Z,7.1
2023-02-17T22:39:12.177Z,7
2023-02-17T22:42:12.172Z,7
2023-02-17T22:45:12.129Z,7
2023-02-17T22:48:12.172Z,6.9
2023-02-17T22:51:12.204Z,6.9
2023-02-17T22:54:12.180Z,6.9
2023-02-17T22:57:12.205Z,6.9
2023-02-17T23:00:12.720Z,6.9
2023-02-17T23:03:12.336Z,6.9
2023-02-17T23:06:13.075Z,6.9
2023-02-17T23:09:12.257Z,6.9
2023-02-17T23:12:12.071Z,6.9
2023-02-17T23:15:12.195Z,6.9
2023-02-17T23:18:12.118Z,6.9
2023-02-17T23:21:12.221Z,6.9
2023-02-17T23:24:12.165Z,6.9
2023-02-17T23:27:12.146Z,6.9
2023-02-17T23:30:12.602Z,6.7
2023-02-17T23:33:12.249Z,6.7
2023-02-17T23:36:12.882Z,6.7
2023-02-17T23:39:12.160Z,6.7
2023-02-17T23:42:12.179Z,6.7
2023-02-17T23:45:12.120Z,6.7
2023-02-17T23:48:12.176Z,6.9
2023-02-17T23:51:12.164Z,6.9
2023-02-17T23:54:12.102Z,6.7
2023-02-17T23:57:12.180Z,6.7
